Agate Beach, Oregon
Current Conditions -  °F | °C
As of 8:55 AM on Saturday 25 Oct 2014 (Local Time) from KONP Reporting Station
Scattered Clouds Scattered Clouds  
Wind Chill: 16°   Ceiling: Unl
Heat Index: 16°   Visibility: 10mi
Dew Point:   Wind: 21mph
Humidity: 63%   Direction: 120°ESE
Pressure: 29.34"   Gusts: 29mph
Location:  44.6805°N, 124.021°W
Report Text: KONP 251555Z AUTO 12018G25KT 10SM SCT060 SCT070 16/09 A2934 RMK AO2
Loading
Personal Weather Stations






























Interactive Weather Map
Tropical Storm Tracking
New forecast layout! Learn more

10-Day Weather Forecast

Advertisements
Track Severe Weather on mobile